createdAt,value
2023-01-26T00:03:55.704Z,21.10
2023-01-26T00:08:57.604Z,28.67
2023-01-26T00:14:00.494Z,21.42
2023-01-26T00:19:02.912Z,26.50
2023-01-26T00:24:05.355Z,22.67
2023-01-26T00:29:07.014Z,21.27
2023-01-26T00:34:08.647Z,19.85
2023-01-26T00:39:10.265Z,13.50
2023-01-26T00:44:11.883Z,24.35
2023-01-26T00:49:13.452Z,15.98
2023-01-26T00:54:15.440Z,16.98
2023-01-26T00:59:17.137Z,15.93
2023-01-26T01:04:21.198Z,16.17
2023-01-26T01:09:22.831Z,19.55
2023-01-26T01:14:24.558Z,24.33
2023-01-26T01:19:27.313Z,25.55
2023-01-26T01:24:29.068Z,20.27
2023-01-26T01:29:30.701Z,14.65
2023-01-26T01:34:32.865Z,17.98
2023-01-26T01:39:34.470Z,20.17
2023-01-26T01:44:38.245Z,16.23
2023-01-26T01:49:50.171Z,18.83
2023-01-26T01:54:59.651Z,21.83
2023-01-26T02:00:09.732Z,22.45
2023-01-26T02:05:26.954Z,23.67
2023-01-26T02:10:30.111Z,27.52
2023-01-26T02:15:32.124Z,28.17
2023-01-26T02:20:58.199Z,23.88
2023-01-26T02:26:04.119Z,22.23
2023-01-26T02:31:06.306Z,23.55
2023-01-26T02:36:16.733Z,24.88
2023-01-26T02:41:37.603Z,25.15
2023-01-26T02:46:39.583Z,30.45
2023-01-26T02:51:41.587Z,23.13
2023-01-26T02:56:43.242Z,22.42
2023-01-26T03:01:44.960Z,24.52
2023-01-26T03:06:47.135Z,23.08
2023-01-26T03:11:48.809Z,23.67
2023-01-26T03:16:51.924Z,25.80
2023-01-26T03:22:11.921Z,25.35
2023-01-26T03:27:28.647Z,25.65
2023-01-26T03:32:36.188Z,25.63
2023-01-26T03:37:43.779Z,28.35
2023-01-26T03:43:10.721Z,27.75
2023-01-26T03:48:31.562Z,27.13
2023-01-26T03:53:52.718Z,27.15
2023-01-26T03:58:56.779Z,26.10
2023-01-26T04:04:19.437Z,24.15
2023-01-26T04:09:23.478Z,29.83
2023-01-26T04:14:49.224Z,23.85
2023-01-26T04:20:13.736Z,26.58
2023-01-26T04:25:20.057Z,25.88
2023-01-26T04:30:21.964Z,32.25
2023-01-26T04:35:23.949Z,33.25
2023-01-26T04:40:25.823Z,33.20
2023-01-26T04:45:28.901Z,52.85
2023-01-26T04:50:30.936Z,35.63
2023-01-26T04:55:32.795Z,53.05
2023-01-26T05:00:34.728Z,44.40
2023-01-26T05:05:38.900Z,56.08
2023-01-26T05:10:40.641Z,51.47
2023-01-26T05:16:16.105Z,47.15
2023-01-26T05:21:36.154Z,47.75
2023-01-26T05:26:38.083Z,46.72
2023-01-26T05:31:44.329Z,58.03
2023-01-26T05:36:46.140Z,52.95
2023-01-26T05:41:47.826Z,49.22
2023-01-26T05:47:03.785Z,55.60
2023-01-26T05:52:18.419Z,51.05
2023-01-26T05:57:20.602Z,41.72
2023-01-26T06:02:27.380Z,50.65
2023-01-26T06:07:30.264Z,65.47
2023-01-26T06:12:43.710Z,39.90
2023-01-26T06:18:08.325Z,53.28
2023-01-26T06:23:12.098Z,72.70
2023-01-26T06:28:17.214Z,76.63
2023-01-26T06:33:19.135Z,65.50
2023-01-26T06:38:20.888Z,121.07
2023-01-26T06:43:23.486Z,150.55
2023-01-26T06:48:26.791Z,129.60
2023-01-26T06:53:40.049Z,101.15
2023-01-26T06:59:17.064Z,94.22
2023-01-26T07:04:36.971Z,101.43
2023-01-26T07:09:38.675Z,101.82
2023-01-26T07:14:40.318Z,84.82
2023-01-26T07:19:41.923Z,86.20
2023-01-26T07:24:43.504Z,89.40
2023-01-26T07:29:46.440Z,91.95
2023-01-26T07:34:50.603Z,109.18
2023-01-26T07:39:52.451Z,103.60
2023-01-26T07:44:54.055Z,119.13
2023-01-26T07:49:55.686Z,119.18
2023-01-26T07:54:57.556Z,161.25
2023-01-26T07:59:59.220Z,168.98
2023-01-26T08:05:02.764Z,116.38
2023-01-26T08:10:04.728Z,148.23
2023-01-26T08:15:06.734Z,149.88
2023-01-26T08:20:09.527Z,114.57
2023-01-26T08:25:12.201Z,136.50
2023-01-26T08:30:15.048Z,140.35
2023-01-26T08:35:16.769Z,99.10
2023-01-26T08:40:18.411Z,106.28
2023-01-26T08:45:20.302Z,115.57
2023-01-26T08:50:21.944Z,105.32
2023-01-26T08:55:23.564Z,98.15
2023-01-26T09:00:27.706Z,85.25
2023-01-26T09:05:33.641Z,86.28
2023-01-26T09:10:37.840Z,80.97
2023-01-26T09:15:39.666Z,82.95
2023-01-26T09:20:42.006Z,84.47
2023-01-26T09:25:44.729Z,86.05
2023-01-26T09:30:46.392Z,93.97
2023-01-26T09:35:48.588Z,80.57
2023-01-26T09:41:12.988Z,81.03
2023-01-26T09:46:20.816Z,73.53
2023-01-26T09:51:34.809Z,67.70
2023-01-26T09:56:36.505Z,75.90
2023-01-26T10:01:46.110Z,82.00
2023-01-26T10:06:48.686Z,71.95
2023-01-26T10:12:04.691Z,79.22
2023-01-26T10:17:15.155Z,79.75
2023-01-26T10:22:25.199Z,75.25
2023-01-26T10:27:29.514Z,64.18
2023-01-26T10:32:32.196Z,71.18
2023-01-26T10:37:34.901Z,67.18
2023-01-26T10:42:38.265Z,62.85
2023-01-26T10:47:39.868Z,64.60
2023-01-26T10:52:58.228Z,65.35
2023-01-26T10:58:01.352Z,65.65
2023-01-26T11:03:12.250Z,66.82
2023-01-26T11:08:37.138Z,77.13
2023-01-26T11:13:38.770Z,72.88
2023-01-26T11:19:03.144Z,72.47
2023-01-26T11:24:14.050Z,70.18
2023-01-26T11:29:54.307Z,66.40
2023-01-26T11:35:21.703Z,66.68
2023-01-26T11:40:26.100Z,61.33
2023-01-26T11:45:58.508Z,59.22
2023-01-26T11:51:27.745Z,57.85
2023-01-26T11:56:41.576Z,61.80
2023-01-26T12:01:53.231Z,59.78
2023-01-26T12:07:05.282Z,57.55
2023-01-26T12:12:30.780Z,63.45
2023-01-26T12:17:44.534Z,68.78
2023-01-26T12:23:00.620Z,69.47
2023-01-26T12:28:19.849Z,64.68
2023-01-26T12:33:21.788Z,65.70
2023-01-26T12:38:48.230Z,67.80
2023-01-26T12:44:01.950Z,61.63
2023-01-26T12:49:18.464Z,65.03
2023-01-26T12:54:57.322Z,67.75
2023-01-26T13:00:27.527Z,66.00
2023-01-26T13:05:33.623Z,72.32
2023-01-26T13:10:53.549Z,68.35
2023-01-26T13:16:34.494Z,66.40
2023-01-26T13:21:41.317Z,76.47
2023-01-26T13:26:56.837Z,76.65
2023-01-26T13:32:21.572Z,80.50
2023-01-26T13:37:44.310Z,71.30
2023-01-26T13:43:00.320Z,72.13
2023-01-26T13:48:10.031Z,68.15
2023-01-26T13:53:33.033Z,74.07
2023-01-26T13:58:34.731Z,66.25
2023-01-26T14:03:36.516Z,67.82
2023-01-26T14:08:39.495Z,77.15
2023-01-26T14:13:41.360Z,67.47
2023-01-26T14:18:45.270Z,75.82
2023-01-26T14:23:54.234Z,64.10
2023-01-26T14:28:56.021Z,63.60
2023-01-26T14:33:59.178Z,71.57
2023-01-26T14:39:01.212Z,68.57
2023-01-26T14:44:07.407Z,61.92
2023-01-26T14:49:24.595Z,65.75
2023-01-26T14:54:31.068Z,62.17
2023-01-26T14:59:38.558Z,66.60
2023-01-26T15:04:43.870Z,69.18
2023-01-26T15:09:52.399Z,66.55
2023-01-26T15:14:58.997Z,79.13
2023-01-26T15:20:03.065Z,88.10
2023-01-26T15:25:20.758Z,83.55
2023-01-26T15:30:27.954Z,81.60
2023-01-26T15:35:34.826Z,85.78
2023-01-26T15:40:36.527Z,83.90
2023-01-26T15:45:40.200Z,83.50
2023-01-26T15:50:41.848Z,75.38
2023-01-26T15:55:44.643Z,72.75
2023-01-26T16:00:46.382Z,79.53
2023-01-26T16:05:48.911Z,76.80
2023-01-26T16:10:51.223Z,73.20
2023-01-26T16:15:54.323Z,90.35
2023-01-26T16:20:56.164Z,96.72
2023-01-26T16:26:00.126Z,100.93
2023-01-26T16:31:02.688Z,87.45
2023-01-26T16:36:04.977Z,89.22
2023-01-26T16:41:12.556Z,93.15
2023-01-26T16:46:14.359Z,89.00
2023-01-26T16:51:22.088Z,98.28
2023-01-26T16:56:24.797Z,86.47
2023-01-26T17:01:30.717Z,82.38
2023-01-26T17:06:32.659Z,81.07
2023-01-26T17:11:34.487Z,87.38
2023-01-26T17:16:37.031Z,82.13
2023-01-26T17:21:38.810Z,82.10
2023-01-26T17:26:41.099Z,83.97
2023-01-26T17:31:43.139Z,73.97
2023-01-26T17:36:46.106Z,92.00
2023-01-26T17:41:47.802Z,81.28
2023-01-26T17:46:49.379Z,82.38
2023-01-26T17:51:51.219Z,78.38
2023-01-26T17:56:53.011Z,92.95
2023-01-26T18:01:54.775Z,71.15
2023-01-26T18:06:56.660Z,60.97
2023-01-26T18:11:58.268Z,63.80
2023-01-26T18:16:59.885Z,70.40
2023-01-26T18:22:01.549Z,62.28
2023-01-26T18:27:03.159Z,65.10
2023-01-26T18:32:07.344Z,59.83
2023-01-26T18:37:12.817Z,68.20
2023-01-26T18:42:14.704Z,67.03
2023-01-26T18:47:19.684Z,62.83
2023-01-26T18:52:22.311Z,52.05
2023-01-26T18:57:23.990Z,52.30
2023-01-26T19:02:25.665Z,47.88
2023-01-26T19:07:27.312Z,55.90
2023-01-26T19:12:28.946Z,50.42
2023-01-26T19:17:32.768Z,50.70
2023-01-26T19:22:37.397Z,51.30
2023-01-26T19:27:40.358Z,55.83
2023-01-26T19:33:00.405Z,47.17
2023-01-26T19:38:02.100Z,51.22
2023-01-26T19:43:06.556Z,54.45
2023-01-26T19:48:08.325Z,56.97
2023-01-26T19:53:10.330Z,59.03
2023-01-26T19:58:11.977Z,46.08
2023-01-26T20:03:13.682Z,47.42
2023-01-26T20:08:15.310Z,47.85
2023-01-26T20:13:17.480Z,54.05
2023-01-26T20:18:19.119Z,50.88
2023-01-26T20:23:21.164Z,48.95
2023-01-26T20:28:22.788Z,51.53
2023-01-26T20:33:24.859Z,50.40
2023-01-26T20:38:26.736Z,49.55
2023-01-26T20:43:28.301Z,48.65
2023-01-26T20:48:29.906Z,51.65
2023-01-26T20:53:31.606Z,50.72
2023-01-26T20:58:35.477Z,46.78
2023-01-26T21:03:37.855Z,48.50
2023-01-26T21:08:40.290Z,40.00
2023-01-26T21:13:45.221Z,40.05
2023-01-26T21:18:46.878Z,38.28
2023-01-26T21:23:48.933Z,39.78
2023-01-26T21:28:52.673Z,37.28
2023-01-26T21:33:54.942Z,39.05
2023-01-26T21:38:58.994Z,38.42
2023-01-26T21:44:21.044Z,36.83
2023-01-26T21:49:23.905Z,35.08
2023-01-26T21:54:26.020Z,34.38
2023-01-26T21:59:31.909Z,35.25
2023-01-26T22:04:35.738Z,34.90
2023-01-26T22:09:38.862Z,39.58
2023-01-26T22:14:40.560Z,36.80
2023-01-26T22:19:42.399Z,37.33
2023-01-26T22:24:44.229Z,38.22
2023-01-26T22:29:46.038Z,31.65
2023-01-26T22:34:47.647Z,38.25
2023-01-26T22:39:49.944Z,37.30
2023-01-26T22:44:51.543Z,34.72
2023-01-26T22:49:53.129Z,36.58
2023-01-26T22:54:57.733Z,37.10
2023-01-26T22:59:59.699Z,35.60
2023-01-26T23:05:01.350Z,30.05
2023-01-26T23:10:03.028Z,35.90
2023-01-26T23:15:05.007Z,34.17
2023-01-26T23:20:07.546Z,32.92
2023-01-26T23:25:27.786Z,33.60
2023-01-26T23:30:30.127Z,35.72
2023-01-26T23:35:31.723Z,37.03
2023-01-26T23:40:34.554Z,34.40
2023-01-26T23:45:36.528Z,36.50
2023-01-26T23:50:38.721Z,33.58
2023-01-26T23:55:43.466Z,32.45
